Time;durP1;ratioP1;P1;durP2;ratioP2;P2;SDS_P1;SDS_P2;PMS_P1;PMS_P2;Temp;Humidity;BMP_temperature;BMP_pressure;BME280_temperature;BME280_humidity;BME280_pressure;Samples;Min_cycle;Max_cycle;Signal;HPM_P1;HPM_P2
2021/11/27 00:00:47;;;;;;;12.05;3.25;;;;;;;;;;4981393;28;20423;-68
2021/11/27 00:03:14;;;;;;;8.48;3.33;;;;;;;;;;4970190;28;20133;-67
2021/11/27 00:05:42;;;;;;;9.00;3.38;;;;;;;;;;4980298;28;20129;-67
2021/11/27 00:08:09;;;;;;;8.05;3.90;;;;;;;;;;4978289;28;20085;-67
2021/11/27 00:10:37;;;;;;;8.73;3.60;;;;;;;;;;4981720;28;20058;-68
2021/11/27 00:13:07;;;;;;;7.32;3.33;;;;;;;;;;4979420;28;20073;-68
2021/11/27 00:15:35;;;;;;;5.85;2.50;;;;;;;;;;4980092;28;20077;-67
2021/11/27 00:18:02;;;;;;;11.43;3.60;;;;;;;;;;4978961;28;20052;-68
2021/11/27 00:20:31;;;;;;;6.60;3.70;;;;;;;;;;4980782;28;20081;-67
2021/11/27 00:22:57;;;;;;;9.55;3.55;;;;;;;;;;4978712;28;20165;-67
2021/11/27 00:25:24;;;;;;;8.38;2.85;;;;;;;;;;4977648;28;20077;-68
2021/11/27 00:27:51;;;;;;;7.63;3.08;;;;;;;;;;4977738;28;20061;-67
2021/11/27 00:30:21;;;;;;;9.43;3.38;;;;;;;;;;4976902;28;20338;-68
2021/11/27 00:32:48;;;;;;;7.50;3.67;;;;;;;;;;4979134;28;20491;-67
2021/11/27 00:35:15;;;;;;;7.38;3.67;;;;;;;;;;4968404;28;20082;-67
2021/11/27 00:37:42;;;;;;;4.75;2.63;;;;;;;;;;4984437;28;20057;-67
2021/11/27 00:40:09;;;;;;;6.50;3.80;;;;;;;;;;5001147;28;20049;-67
2021/11/27 00:42:41;;;;;;;7.97;2.88;;;;;;;;;;5002354;28;20049;-68
2021/11/27 00:45:11;;;;;;;9.53;3.40;;;;;;;;;;4998813;28;20112;-67
2021/11/27 00:47:39;;;;;;;5.90;2.88;;;;;;;;;;4998114;28;20110;-68
2021/11/27 00:50:05;;;;;;;8.40;3.33;;;;;;;;;;4998483;28;20068;-68
2021/11/27 00:52:32;;;;;;;8.30;3.35;;;;;;;;;;4997619;28;20080;-67
2021/11/27 00:54:59;;;;;;;4.77;2.60;;;;;;;;;;4997777;28;20140;-67
2021/11/27 00:57:25;;;;;;;5.27;3.20;;;;;;;;;;4995776;28;20148;-67
2021/11/27 00:59:51;;;;;;;10.88;3.30;;;;;;;;;;4998723;28;20388;-67
2021/11/27 01:02:19;;;;;;;8.15;2.80;;;;;;;;;;4996210;28;20056;-67
2021/11/27 01:04:45;;;;;;;8.88;3.08;;;;;;;;;;4995908;28;20046;-67
2021/11/27 01:07:12;;;;;;;7.72;3.30;;;;;;;;;;4997350;28;20084;-67
2021/11/27 01:09:38;;;;;;;6.97;3.30;;;;;;;;;;4997847;28;20116;-68
2021/11/27 01:12:05;;;;;;;5.85;2.83;;;;;;;;;;4999361;28;20054;-67
2021/11/27 01:14:34;;;;;;;7.07;3.35;;;;;;;;;;4997353;28;20498;-68
2021/11/27 01:17:04;;;;;;;11.60;3.80;;;;;;;;;;4996861;28;20495;-67
2021/11/27 01:19:31;;;;;;;5.70;3.33;;;;;;;;;;4996991;28;20056;-67
2021/11/27 01:21:59;;;;;;;6.50;3.90;;;;;;;;;;4999310;28;20137;-67
2021/11/27 01:24:26;;;;;;;10.52;4.60;;;;;;;;;;4995413;28;20064;-67
2021/11/27 01:26:58;;;;;;;9.10;4.67;;;;;;;;;;4996784;28;20084;-67
2021/11/27 01:29:35;;;;;;;13.75;5.03;;;;;;;;;;4997327;28;20637;-68
2021/11/27 01:32:01;;;;;;;11.38;4.80;;;;;;;;;;4996341;28;20140;-67
2021/11/27 01:34:28;;;;;;;14.13;6.53;;;;;;;;;;4998669;28;20429;-67
2021/11/27 01:36:54;;;;;;;15.77;6.00;;;;;;;;;;4996424;28;20050;-67
2021/11/27 01:39:21;;;;;;;17.38;6.85;;;;;;;;;;4996894;28;20078;-67
2021/11/27 01:41:47;;;;;;;14.70;6.17;;;;;;;;;;4997764;28;20049;-68
2021/11/27 01:44:14;;;;;;;15.00;6.68;;;;;;;;;;4997322;28;20338;-67
2021/11/27 01:46:41;;;;;;;23.17;7.68;;;;;;;;;;4996742;28;20486;-67
2021/11/27 01:49:08;;;;;;;13.15;6.90;;;;;;;;;;4994687;28;20149;-67
2021/11/27 01:51:34;;;;;;;18.15;8.02;;;;;;;;;;4997177;28;20066;-67
2021/11/27 01:54:05;;;;;;;16.45;7.93;;;;;;;;;;4996854;28;20129;-67
2021/11/27 01:56:34;;;;;;;12.95;6.95;;;;;;;;;;4997701;28;20073;-67
2021/11/27 01:59:01;;;;;;;16.55;7.55;;;;;;;;;;4996972;28;20051;-67
2021/11/27 02:01:30;;;;;;;12.57;6.28;;;;;;;;;;4997214;28;20046;-67
2021/11/27 02:03:57;;;;;;;13.25;6.25;;;;;;;;;;4998298;28;20476;-68
2021/11/27 02:06:24;;;;;;;15.00;8.70;;;;;;;;;;4996409;28;20034;-67
2021/11/27 02:08:52;;;;;;;12.55;7.07;;;;;;;;;;4996664;28;20056;-67
2021/11/27 02:11:20;;;;;;;15.32;8.00;;;;;;;;;;4995515;28;20058;-67
2021/11/27 02:13:47;;;;;;;14.82;7.72;;;;;;;;;;4962118;28;20498;-68
2021/11/27 02:16:14;;;;;;;13.00;7.35;;;;;;;;;;4997068;28;20112;-67
2021/11/27 02:18:40;;;;;;;13.73;7.55;;;;;;;;;;4997281;28;20049;-67
2021/11/27 02:21:11;;;;;;;12.52;5.65;;;;;;;;;;4994345;28;20042;-67
2021/11/27 02:23:38;;;;;;;17.05;6.38;;;;;;;;;;4993954;28;20046;-68
2021/11/27 02:26:07;;;;;;;12.55;6.95;;;;;;;;;;4998654;28;20560;-68
2021/11/27 02:28:36;;;;;;;16.30;6.93;;;;;;;;;;4994701;28;20061;-67
2021/11/27 02:31:03;;;;;;;13.60;6.93;;;;;;;;;;4996090;28;20084;-67
2021/11/27 02:33:30;;;;;;;;;;;;;;;;;;5002236;28;20045;-67
2021/11/27 02:35:56;;;;;;;14.68;7.18;;;;;;;;;;5001264;28;19971;-68
2021/11/27 02:38:23;;;;;;;12.68;6.88;;;;;;;;;;4999958;28;20475;-67
2021/11/27 02:40:50;;;;;;;11.97;6.20;;;;;;;;;;4999124;28;20309;-68
2021/11/27 02:43:16;;;;;;;10.93;7.20;;;;;;;;;;5003216;28;20046;-67
2021/11/27 02:45:43;;;;;;;12.50;5.97;;;;;;;;;;5000781;28;20591;-67
2021/11/27 02:48:09;;;;;;;11.23;6.85;;;;;;;;;;5001543;28;20116;-67
2021/11/27 02:50:36;;;;;;;14.43;7.53;;;;;;;;;;5001466;28;20430;-67
2021/11/27 02:53:03;;;;;;;10.55;6.95;;;;;;;;;;5000971;28;20478;-67
2021/11/27 02:55:29;;;;;;;10.63;5.95;;;;;;;;;;5005732;28;20043;-67
2021/11/27 02:57:56;;;;;;;12.30;6.72;;;;;;;;;;5007283;28;20552;-68
2021/11/27 03:00:24;;;;;;;10.98;6.03;;;;;;;;;;4999422;28;20395;-67
2021/11/27 03:02:50;;;;;;;14.77;6.85;;;;;;;;;;4998343;28;20085;-67
2021/11/27 03:05:18;;;;;;;12.98;6.35;;;;;;;;;;4998419;28;20042;-68
2021/11/27 03:07:45;;;;;;;;;;;;;;;;;;5000635;28;20481;-68
2021/11/27 03:10:13;;;;;;;9.63;5.90;;;;;;;;;;4999180;28;19925;-68
2021/11/27 03:12:41;;;;;;;13.15;6.80;;;;;;;;;;4999232;28;20046;-67
2021/11/27 03:15:10;;;;;;;18.65;7.13;;;;;;;;;;5001026;28;20073;-68
2021/11/27 03:17:36;;;;;;;12.13;7.07;;;;;;;;;;5001687;28;20046;-67
2021/11/27 03:20:04;;;;;;;9.23;5.30;;;;;;;;;;5003539;28;20281;-67
2021/11/27 03:22:31;;;;;;;8.93;6.00;;;;;;;;;;4998927;28;20077;-68
2021/11/27 03:24:57;;;;;;;11.03;6.77;;;;;;;;;;4998684;28;20399;-67
2021/11/27 03:27:24;;;;;;;15.90;6.60;;;;;;;;;;4999068;28;20042;-68
2021/11/27 03:29:52;;;;;;;10.93;7.10;;;;;;;;;;4999729;28;20042;-67
2021/11/27 03:32:18;;;;;;;14.82;7.10;;;;;;;;;;5002471;28;20456;-68
2021/11/27 03:34:46;;;;;;;14.18;6.32;;;;;;;;;;5000625;28;20145;-68
2021/11/27 03:37:15;;;;;;;13.13;7.32;;;;;;;;;;4998816;28;20054;-68
2021/11/27 03:39:42;;;;;;;9.30;5.82;;;;;;;;;;4999467;28;20137;-68
2021/11/27 03:42:10;;;;;;;12.65;6.32;;;;;;;;;;4998980;28;20038;-67
2021/11/27 03:44:37;;;;;;;14.07;6.97;;;;;;;;;;4999245;28;20049;-68
2021/11/27 03:47:04;;;;;;;13.10;6.22;;;;;;;;;;5000808;28;20077;-67
2021/11/27 03:49:31;;;;;;;7.88;4.55;;;;;;;;;;4998828;28;20458;-67
2021/11/27 03:51:58;;;;;;;12.07;5.18;;;;;;;;;;4996275;28;20133;-67
2021/11/27 03:54:25;;;;;;;10.55;4.82;;;;;;;;;;4999675;28;20576;-68
2021/11/27 03:56:52;;;;;;;8.75;5.07;;;;;;;;;;4997742;28;20050;-67
2021/11/27 03:59:19;;;;;;;11.30;5.05;;;;;;;;;;4999579;28;20490;-67
2021/11/27 04:01:46;;;;;;;9.40;5.32;;;;;;;;;;4999765;28;20046;-68
2021/11/27 04:04:13;;;;;;;9.77;5.47;;;;;;;;;;4997937;28;20046;-68
2021/11/27 04:06:40;;;;;;;6.65;3.80;;;;;;;;;;5000071;28;20045;-67
2021/11/27 04:09:08;;;;;;;6.40;3.70;;;;;;;;;;5000474;28;20049;-68
2021/11/27 04:11:35;;;;;;;7.43;4.68;;;;;;;;;;4998967;28;20048;-68
2021/11/27 04:14:02;;;;;;;;;;;;;;;;;;4982445;28;20065;-67
2021/11/27 04:16:29;;;;;;;7.18;4.40;;;;;;;;;;4998020;28;20610;-68
2021/11/27 04:18:55;;;;;;;14.75;4.55;;;;;;;;;;4997731;28;20085;-67
2021/11/27 04:21:22;;;;;;;7.50;4.55;;;;;;;;;;4997306;28;20668;-68
2021/11/27 04:23:50;;;;;;;7.72;4.25;;;;;;;;;;4999226;28;20141;-68
2021/11/27 04:26:17;;;;;;;10.23;5.53;;;;;;;;;;4999116;28;20948;-68
2021/11/27 04:28:47;;;;;;;7.18;5.43;;;;;;;;;;4995960;28;20053;-67
2021/11/27 04:31:17;;;;;;;8.95;5.53;;;;;;;;;;4999841;28;20049;-67
2021/11/27 04:33:45;;;;;;;10.63;5.95;;;;;;;;;;4999414;28;20533;-68
2021/11/27 04:36:12;;;;;;;10.90;6.35;;;;;;;;;;4998490;28;20050;-67
2021/11/27 04:38:38;;;;;;;8.48;4.93;;;;;;;;;;4998354;28;20054;-68
2021/11/27 04:41:05;;;;;;;10.82;5.43;;;;;;;;;;4996026;28;20289;-68
2021/11/27 04:43:33;;;;;;;8.32;5.38;;;;;;;;;;5000069;28;20125;-68
2021/11/27 04:46:00;;;;;;;8.98;4.82;;;;;;;;;;4999314;28;20096;-68
2021/11/27 04:48:27;;;;;;;10.07;5.15;;;;;;;;;;4999644;28;20057;-68
2021/11/27 04:50:54;;;;;;;11.90;5.28;;;;;;;;;;4997630;28;20046;-68
2021/11/27 04:53:21;;;;;;;9.17;4.90;;;;;;;;;;4998288;28;20073;-68
2021/11/27 04:55:47;;;;;;;13.05;5.05;;;;;;;;;;4995659;28;20521;-67
2021/11/27 04:58:14;;;;;;;10.75;5.43;;;;;;;;;;4996703;28;20521;-68
2021/11/27 05:00:48;;;;;;;7.15;4.40;;;;;;;;;;4998976;28;20145;-67
2021/11/27 05:03:15;;;;;;;10.25;4.57;;;;;;;;;;4997719;28;20409;-68
2021/11/27 05:05:42;;;;;;;7.27;4.47;;;;;;;;;;4996645;28;20068;-67
2021/11/27 05:08:08;;;;;;;10.23;4.63;;;;;;;;;;4997017;28;20081;-68
2021/11/27 05:10:35;;;;;;;8.13;4.57;;;;;;;;;;4995600;28;20077;-67
2021/11/27 05:13:02;;;;;;;11.20;4.82;;;;;;;;;;4995102;28;20463;-68
2021/11/27 05:15:28;;;;;;;8.57;4.43;;;;;;;;;;4995152;28;20056;-67
2021/11/27 05:17:55;;;;;;;7.18;3.05;;;;;;;;;;4995950;28;20084;-68
2021/11/27 05:20:22;;;;;;;5.33;3.93;;;;;;;;;;4998048;28;20372;-67
2021/11/27 05:22:48;;;;;;;8.73;4.00;;;;;;;;;;4998056;28;20052;-68
2021/11/27 05:25:15;;;;;;;7.22;3.97;;;;;;;;;;4989677;28;20589;-67
2021/11/27 05:27:41;;;;;;;6.50;4.03;;;;;;;;;;4995764;28;20133;-67
2021/11/27 05:30:09;;;;;;;10.90;4.32;;;;;;;;;;4996875;28;20490;-67
2021/11/27 05:35:05;;;;;;;10.18;3.80;;;;;;;;;;4998068;28;22233;-67
2021/11/27 05:37:32;;;;;;;8.07;3.80;;;;;;;;;;4998107;28;20069;-68
2021/11/27 05:40:00;;;;;;;7.23;3.97;;;;;;;;;;4996344;28;20128;-67
2021/11/27 05:42:26;;;;;;;8.35;3.55;;;;;;;;;;4996272;28;20339;-67
2021/11/27 05:44:53;;;;;;;6.85;3.80;;;;;;;;;;4997271;28;20050;-68
2021/11/27 05:47:20;;;;;;;9.00;3.90;;;;;;;;;;4995820;28;20471;-67
2021/11/27 05:49:47;;;;;;;9.70;4.18;;;;;;;;;;4997432;28;20319;-68
2021/11/27 05:52:14;;;;;;;6.03;3.35;;;;;;;;;;5002232;28;20132;-67
2021/11/27 05:54:41;;;;;;;5.55;2.72;;;;;;;;;;4995998;28;20132;-67
2021/11/27 05:57:07;;;;;;;5.25;3.45;;;;;;;;;;4995142;28;20549;-68
2021/11/27 05:59:34;;;;;;;5.88;3.28;;;;;;;;;;4996543;28;20049;-68
2021/11/27 06:02:00;;;;;;;5.70;3.50;;;;;;;;;;4996067;28;20137;-68
2021/11/27 06:04:27;;;;;;;5.38;3.65;;;;;;;;;;4999259;28;20046;-67
2021/11/27 06:06:53;;;;;;;9.27;3.88;;;;;;;;;;4996422;28;20078;-68
2021/11/27 06:09:20;;;;;;;5.50;3.30;;;;;;;;;;4996583;28;20718;-67
2021/11/27 06:11:47;;;;;;;7.68;3.40;;;;;;;;;;4997317;28;20480;-68
2021/11/27 06:14:13;;;;;;;9.95;3.28;;;;;;;;;;4996017;28;20086;-67
2021/11/27 06:16:40;;;;;;;6.95;3.60;;;;;;;;;;4996919;28;20466;-67
2021/11/27 06:19:06;;;;;;;4.63;2.80;;;;;;;;;;4995499;28;20137;-67
2021/11/27 06:21:33;;;;;;;7.03;3.35;;;;;;;;;;4997718;28;20128;-67
2021/11/27 06:23:59;;;;;;;4.07;2.58;;;;;;;;;;4995235;28;20417;-67
2021/11/27 06:26:26;;;;;;;6.93;3.35;;;;;;;;;;4996893;28;20077;-67
2021/11/27 06:28:53;;;;;;;11.00;3.60;;;;;;;;;;4995963;28;20137;-67
2021/11/27 06:31:19;;;;;;;5.68;3.17;;;;;;;;;;4996709;28;20125;-67
2021/11/27 06:33:46;;;;;;;8.27;3.50;;;;;;;;;;4998227;28;20054;-67
2021/11/27 06:36:13;;;;;;;5.80;3.60;;;;;;;;;;4996673;28;20436;-67
2021/11/27 06:38:40;;;;;;;7.90;3.25;;;;;;;;;;4995793;28;20251;-68
2021/11/27 06:41:06;;;;;;;7.78;3.50;;;;;;;;;;4996959;28;20080;-67
2021/11/27 06:43:33;;;;;;;7.13;3.20;;;;;;;;;;4997715;28;20046;-67
2021/11/27 06:46:00;;;;;;;5.28;3.53;;;;;;;;;;5000726;28;20081;-67
2021/11/27 06:48:28;;;;;;;6.40;3.45;;;;;;;;;;4998960;28;20163;-68
2021/11/27 06:50:55;;;;;;;6.65;3.10;;;;;;;;;;4999376;28;20580;-68
2021/11/27 06:53:22;;;;;;;5.78;3.03;;;;;;;;;;5005729;28;20129;-68
2021/11/27 06:55:48;;;;;;;5.10;3.57;;;;;;;;;;5005130;28;20446;-68
2021/11/27 06:58:15;;;;;;;5.93;3.33;;;;;;;;;;5004645;28;20177;-68
2021/11/27 07:00:41;;;;;;;5.27;3.53;;;;;;;;;;4988054;28;20141;-68
2021/11/27 07:03:08;;;;;;;10.27;3.37;;;;;;;;;;5006953;28;20297;-68
2021/11/27 07:05:34;;;;;;;7.65;3.60;;;;;;;;;;5003709;28;20863;-68
2021/11/27 07:08:01;;;;;;;8.87;3.93;;;;;;;;;;5002227;28;20137;-67
2021/11/27 07:10:27;;;;;;;5.63;3.72;;;;;;;;;;4998615;28;20085;-68
2021/11/27 07:12:54;;;;;;;3.60;2.60;;;;;;;;;;5002690;28;20049;-68
2021/11/27 07:15:21;;;;;;;7.03;3.10;;;;;;;;;;5002579;28;20137;-68
2021/11/27 07:17:47;;;;;;;6.72;3.45;;;;;;;;;;5012497;28;20489;-68
2021/11/27 07:20:14;;;;;;;9.27;4.03;;;;;;;;;;5010182;28;20084;-68
2021/11/27 07:22:41;;;;;;;8.63;3.72;;;;;;;;;;5001312;28;20081;-68
2021/11/27 07:25:08;;;;;;;14.02;4.47;;;;;;;;;;5010111;28;20635;-68
2021/11/27 07:27:34;;;;;;;5.28;3.75;;;;;;;;;;5008837;28;20054;-67
2021/11/27 07:30:01;;;;;;;8.80;4.20;;;;;;;;;;5002894;28;20133;-68
2021/11/27 07:32:27;;;;;;;7.37;3.70;;;;;;;;;;5001733;28;20133;-68
2021/11/27 07:34:53;;;;;;;10.80;4.45;;;;;;;;;;5001411;28;20129;-68
2021/11/27 07:37:24;;;;;;;5.70;2.75;;;;;;;;;;5003618;28;20126;-67
2021/11/27 07:39:52;;;;;;;6.15;3.47;;;;;;;;;;5001636;28;20101;-67
2021/11/27 07:42:19;;;;;;;8.25;3.80;;;;;;;;;;5010289;28;20125;-68
2021/11/27 07:44:46;;;;;;;6.32;3.67;;;;;;;;;;5002332;28;20128;-68
2021/11/27 07:47:12;;;;;;;8.63;3.60;;;;;;;;;;5010993;28;20084;-68
2021/11/27 07:49:39;;;;;;;7.13;3.30;;;;;;;;;;5003120;28;20089;-67
2021/11/27 07:52:05;;;;;;;10.87;3.77;;;;;;;;;;5005579;28;20141;-67
2021/11/27 07:54:32;;;;;;;11.85;3.83;;;;;;;;;;5003980;28;20105;-67
2021/11/27 07:57:00;;;;;;;6.07;3.47;;;;;;;;;;5002758;28;20069;-68
2021/11/27 07:59:29;;;;;;;10.15;3.45;;;;;;;;;;5002350;28;20073;-68
2021/11/27 08:01:56;;;;;;;6.20;3.50;;;;;;;;;;5000450;28;20047;-67
2021/11/27 08:04:22;;;;;;;5.68;3.45;;;;;;;;;;5003876;28;20046;-67
2021/11/27 08:06:49;;;;;;;6.80;3.75;;;;;;;;;;5001406;28;20054;-68
2021/11/27 08:09:16;;;;;;;5.65;3.05;;;;;;;;;;5001041;28;20145;-67
2021/11/27 08:11:42;;;;;;;8.43;3.22;;;;;;;;;;4999612;28;20149;-68
2021/11/27 08:14:09;;;;;;;4.63;3.20;;;;;;;;;;5002670;28;20064;-68
2021/11/27 08:16:36;;;;;;;5.77;3.17;;;;;;;;;;5004011;28;20078;-67
2021/11/27 08:19:02;;;;;;;7.05;3.50;;;;;;;;;;5000575;28;20050;-67
2021/11/27 08:21:29;;;;;;;7.40;3.60;;;;;;;;;;5001877;28;20069;-67
2021/11/27 08:23:56;;;;;;;6.75;3.58;;;;;;;;;;4999363;28;20050;-68
2021/11/27 08:26:23;;;;;;;6.13;3.50;;;;;;;;;;5000437;28;20085;-67
2021/11/27 08:28:50;;;;;;;11.80;3.63;;;;;;;;;;5000271;28;20141;-68
2021/11/27 08:31:16;;;;;;;6.07;3.38;;;;;;;;;;4999898;28;20498;-68
2021/11/27 08:33:43;;;;;;;6.78;2.92;;;;;;;;;;5002081;28;21430;-67
2021/11/27 08:36:10;;;;;;;6.15;3.30;;;;;;;;;;4998893;28;20088;-67
2021/11/27 08:38:37;;;;;;;3.88;2.60;;;;;;;;;;5000963;28;20057;-67
2021/11/27 08:41:07;;;;;;;7.57;3.40;;;;;;;;;;5001434;28;20073;-67
2021/11/27 08:43:35;;;;;;;7.20;3.28;;;;;;;;;;5001182;28;20081;-67
2021/11/27 08:46:01;;;;;;;;;;;;;;;;;;5003578;28;20065;-67
2021/11/27 08:48:29;;;;;;;5.07;3.25;;;;;;;;;;5001744;28;20024;-67
2021/11/27 08:50:55;;;;;;;;;;;;;;;;;;5003985;28;20050;-68
2021/11/27 08:53:22;;;;;;;4.30;2.92;;;;;;;;;;5000852;28;20441;-67
2021/11/27 08:55:49;;;;;;;7.63;2.85;;;;;;;;;;4999692;28;20145;-68
2021/11/27 08:58:15;;;;;;;7.28;3.28;;;;;;;;;;5000659;28;20141;-67
2021/11/27 09:00:42;;;;;;;9.02;3.30;;;;;;;;;;5000127;28;20084;-67
2021/11/27 09:03:08;;;;;;;7.35;3.15;;;;;;;;;;4999841;28;20046;-67
2021/11/27 09:05:35;;;;;;;5.67;2.70;;;;;;;;;;5002345;28;20494;-67
2021/11/27 09:08:02;;;;;;;8.27;3.53;;;;;;;;;;4999384;28;20069;-68
2021/11/27 09:10:28;;;;;;;4.47;2.83;;;;;;;;;;5001702;28;20156;-67
2021/11/27 09:12:56;;;;;;;4.93;3.08;;;;;;;;;;5001194;28;20340;-67
2021/11/27 09:15:22;;;;;;;5.68;3.17;;;;;;;;;;5001184;28;20076;-67
2021/11/27 09:17:49;;;;;;;6.93;3.35;;;;;;;;;;4998410;28;20108;-67
2021/11/27 09:20:15;;;;;;;8.10;3.60;;;;;;;;;;4998493;28;20080;-67
2021/11/27 09:22:42;;;;;;;5.63;3.05;;;;;;;;;;5000700;28;20116;-67
2021/11/27 09:25:09;;;;;;;6.57;3.05;;;;;;;;;;4999440;28;20058;-67
2021/11/27 09:27:36;;;;;;;5.63;3.03;;;;;;;;;;4997524;28;20069;-67
2021/11/27 09:30:05;;;;;;;4.25;2.55;;;;;;;;;;5000183;28;20589;-68
2021/11/27 09:32:32;;;;;;;5.13;3.10;;;;;;;;;;4998294;28;20052;-67
2021/11/27 09:34:59;;;;;;;7.90;3.10;;;;;;;;;;4999084;28;20053;-67
2021/11/27 09:37:26;;;;;;;6.78;2.88;;;;;;;;;;4999261;28;20066;-68
2021/11/27 09:39:52;;;;;;;6.57;3.25;;;;;;;;;;4998895;28;20085;-68
2021/11/27 09:42:19;;;;;;;5.90;2.87;;;;;;;;;;5000174;28;20057;-67
2021/11/27 09:44:46;;;;;;;6.25;2.95;;;;;;;;;;4999441;28;20388;-67
2021/11/27 09:47:13;;;;;;;5.18;2.72;;;;;;;;;;4998449;28;20463;-68
2021/11/27 09:49:42;;;;;;;5.32;2.97;;;;;;;;;;4999374;28;20100;-68
2021/11/27 09:52:08;;;;;;;5.93;2.80;;;;;;;;;;4997045;28;20893;-68
2021/11/27 09:54:35;;;;;;;9.25;3.35;;;;;;;;;;4998939;28;20133;-67
2021/11/27 09:57:06;;;;;;;5.15;2.50;;;;;;;;;;4998687;28;20903;-68
2021/11/27 09:59:33;;;;;;;3.55;2.65;;;;;;;;;;4997462;28;20133;-67
2021/11/27 10:01:59;;;;;;;4.05;2.85;;;;;;;;;;5000069;28;20135;-67
2021/11/27 10:04:31;;;;;;;4.32;2.58;;;;;;;;;;4996817;28;20058;-68
2021/11/27 10:06:58;;;;;;;;;;;;;;;;;;4983497;28;20082;-67
2021/11/27 10:09:24;;;;;;;5.90;2.67;;;;;;;;;;4997907;28;19991;-67
2021/11/27 10:11:52;;;;;;;3.65;2.67;;;;;;;;;;4998906;28;20100;-67
2021/11/27 10:14:19;;;;;;;6.10;2.58;;;;;;;;;;4994992;28;20141;-68
2021/11/27 10:16:58;;;;;;;3.92;2.38;;;;;;;;;;4999378;28;20150;-67
2021/11/27 10:19:27;;;;;;;5.63;2.65;;;;;;;;;;4998286;28;20128;-67
2021/11/27 10:22:00;;;;;;;8.35;2.90;;;;;;;;;;5000159;28;20045;-67
2021/11/27 10:24:28;;;;;;;3.65;2.60;;;;;;;;;;5003676;28;20077;-67
2021/11/27 10:26:58;;;;;;;4.65;2.63;;;;;;;;;;4997916;28;20505;-67
2021/11/27 10:29:28;;;;;;;3.92;2.60;;;;;;;;;;4999377;28;20136;-67
2021/11/27 10:32:06;;;;;;;4.30;2.55;;;;;;;;;;4998972;28;20081;-68
2021/11/27 10:34:33;;;;;;;4.95;2.53;;;;;;;;;;5000270;28;20634;-67
2021/11/27 10:37:23;;;;;;;5.40;3.08;;;;;;;;;;4997309;28;20101;-67
2021/11/27 10:39:55;;;;;;;4.72;2.50;;;;;;;;;;4983847;28;20146;-67
2021/11/27 10:42:22;;;;;;;4.90;2.35;;;;;;;;;;4999000;28;20472;-67
2021/11/27 10:44:51;;;;;;;7.05;2.70;;;;;;;;;;4999987;28;20140;-67
2021/11/27 10:47:19;;;;;;;4.25;2.70;;;;;;;;;;4990599;28;20049;-67
2021/11/27 10:49:45;;;;;;;;;;;;;;;;;;5002526;28;20061;-67
2021/11/27 10:52:13;;;;;;;3.85;2.50;;;;;;;;;;5001886;28;19976;-67
2021/11/27 10:54:47;;;;;;;3.90;2.20;;;;;;;;;;5002653;28;20569;-67
2021/11/27 10:57:29;;;;;;;5.88;2.38;;;;;;;;;;4993007;28;20128;-67
2021/11/27 10:59:57;;;;;;;3.75;2.30;;;;;;;;;;5002734;28;20584;-67
2021/11/27 11:02:27;;;;;;;4.22;2.30;;;;;;;;;;5002830;28;20137;-68
2021/11/27 11:05:06;;;;;;;8.30;2.30;;;;;;;;;;5003386;28;20485;-68
2021/11/27 11:07:33;;;;;;;4.50;2.10;;;;;;;;;;5006110;28;20076;-68
2021/11/27 11:10:12;;;;;;;4.18;2.10;;;;;;;;;;5003107;28;20082;-68
2021/11/27 11:12:43;;;;;;;5.57;2.40;;;;;;;;;;5006909;28;20061;-67
2021/11/27 11:15:22;;;;;;;5.43;2.40;;;;;;;;;;5004833;28;20469;-68
2021/11/27 11:17:51;;;;;;;4.30;2.33;;;;;;;;;;5004528;28;20565;-67
2021/11/27 11:20:20;;;;;;;5.80;2.08;;;;;;;;;;4995727;28;20165;-67
2021/11/27 11:23:07;;;;;;;4.32;2.50;;;;;;;;;;5004400;28;20797;-67
2021/11/27 11:25:38;;;;;;;3.92;2.15;;;;;;;;;;5002751;28;20046;-68
2021/11/27 11:28:12;;;;;;;6.05;2.60;;;;;;;;;;5003639;28;20129;-67
2021/11/27 11:30:40;;;;;;;3.97;2.33;;;;;;;;;;5001695;28;20172;-68
2021/11/27 11:33:07;;;;;;;5.28;2.03;;;;;;;;;;5003519;28;20054;-67
2021/11/27 11:35:35;;;;;;;7.07;2.70;;;;;;;;;;5003554;28;20147;-68
2021/11/27 11:38:02;;;;;;;6.70;2.33;;;;;;;;;;5001742;28;20713;-67
2021/11/27 11:40:30;;;;;;;3.30;2.08;;;;;;;;;;5004944;28;20159;-68
2021/11/27 11:42:56;;;;;;;;;;;;;;;;;;5003435;28;20077;-68
2021/11/27 11:45:23;;;;;;;3.47;2.17;;;;;;;;;;5000966;28;20002;-67
2021/11/27 11:47:49;;;;;;;5.13;2.78;;;;;;;;;;5003596;28;20902;-68
2021/11/27 11:50:38;;;;;;;3.83;2.13;;;;;;;;;;4999963;28;20490;-67
2021/11/27 11:53:10;;;;;;;3.90;2.65;;;;;;;;;;5002079;28;20045;-67
2021/11/27 11:55:50;;;;;;;5.82;2.30;;;;;;;;;;5001767;28;20081;-68
2021/11/27 11:58:24;;;;;;;4.82;2.53;;;;;;;;;;5000998;28;20132;-68
2021/11/27 12:00:54;;;;;;;3.05;2.20;;;;;;;;;;5004470;28;20129;-67
2021/11/27 12:03:22;;;;;;;6.53;3.00;;;;;;;;;;5004321;28;20046;-67
2021/11/27 12:06:08;;;;;;;3.55;2.33;;;;;;;;;;5003348;28;20502;-68
2021/11/27 12:08:55;;;;;;;4.78;2.55;;;;;;;;;;4989983;28;20056;-67
2021/11/27 12:11:41;;;;;;;6.22;2.60;;;;;;;;;;5001286;28;20141;-67
2021/11/27 12:14:21;;;;;;;4.03;2.58;;;;;;;;;;5000322;28;20129;-67
2021/11/27 12:17:14;;;;;;;7.15;2.60;;;;;;;;;;5001440;28;20422;-67
2021/11/27 12:19:43;;;;;;;4.68;2.45;;;;;;;;;;5002843;28;20128;-67
2021/11/27 12:25:08;;;;;;;6.38;2.47;;;;;;;;;;5009692;28;20073;-68
2021/11/27 12:27:35;;;;;;;3.70;2.30;;;;;;;;;;5005611;28;20081;-67
2021/11/27 12:30:06;;;;;;;3.75;2.55;;;;;;;;;;4999882;28;20133;-67
2021/11/27 12:32:42;;;;;;;5.75;3.20;;;;;;;;;;5000713;28;20076;-67
2021/11/27 12:35:32;;;;;;;3.85;2.55;;;;;;;;;;5002412;28;20125;-67
2021/11/27 12:38:08;;;;;;;5.00;2.97;;;;;;;;;;5002135;28;20057;-68
2021/11/27 12:40:37;;;;;;;6.03;2.75;;;;;;;;;;5019298;28;20556;-67
2021/11/27 12:43:16;;;;;;;4.28;2.50;;;;;;;;;;5019630;28;20545;-67
2021/11/27 12:45:44;;;;;;;6.32;3.03;;;;;;;;;;5020953;28;20046;-67
2021/11/27 12:48:29;;;;;;;7.03;3.08;;;;;;;;;;5021220;28;20108;-68
2021/11/27 12:51:14;;;;;;;8.55;3.33;;;;;;;;;;5021295;28;20125;-67
2021/11/27 12:54:01;;;;;;;7.70;2.92;;;;;;;;;;5020543;28;20168;-67
2021/11/27 12:56:50;;;;;;;4.75;2.60;;;;;;;;;;5018089;28;20125;-68
2021/11/27 12:59:17;;;;;;;4.10;3.00;;;;;;;;;;5020024;28;20093;-68
2021/11/27 13:01:44;;;;;;;7.18;3.30;;;;;;;;;;5020404;28;20081;-67
2021/11/27 13:04:11;;;;;;;8.88;3.30;;;;;;;;;;5020756;28;20084;-67
2021/11/27 13:06:41;;;;;;;12.15;3.80;;;;;;;;;;5017983;28;20132;-68
2021/11/27 13:09:14;;;;;;;5.80;3.85;;;;;;;;;;5021964;28;20145;-67
2021/11/27 13:11:43;;;;;;;11.60;3.70;;;;;;;;;;5019079;28;20141;-67
2021/11/27 13:14:30;;;;;;;8.23;3.33;;;;;;;;;;5016775;28;20505;-67
2021/11/27 13:17:07;;;;;;;10.05;3.50;;;;;;;;;;5019283;28;20521;-67
2021/11/27 13:19:38;;;;;;;6.67;3.60;;;;;;;;;;5016841;28;20045;-67
2021/11/27 13:22:04;;;;;;;6.03;3.42;;;;;;;;;;5018687;28;20336;-68
2021/11/27 13:24:31;;;;;;;6.32;3.45;;;;;;;;;;5018255;28;20095;-67
2021/11/27 13:26:58;;;;;;;;;;;;;;;;;;5016674;28;20069;-67
2021/11/27 13:29:28;;;;;;;6.05;3.25;;;;;;;;;;5018368;28;19975;-67
2021/11/27 13:31:54;;;;;;;5.55;3.28;;;;;;;;;;5015908;28;20514;-68
2021/11/27 13:34:22;;;;;;;9.73;3.33;;;;;;;;;;5018434;28;20596;-68
2021/11/27 13:37:08;;;;;;;4.00;2.95;;;;;;;;;;5017416;28;20505;-68
2021/11/27 13:39:37;;;;;;;3.00;2.30;;;;;;;;;;5019079;28;20137;-67
2021/11/27 13:42:11;;;;;;;6.05;3.65;;;;;;;;;;5018490;28;20134;-68
2021/11/27 13:44:41;;;;;;;6.80;3.28;;;;;;;;;;5018517;28;20132;-67
2021/11/27 13:47:10;;;;;;;6.07;3.35;;;;;;;;;;5020393;28;20157;-67
2021/11/27 13:49:38;;;;;;;5.55;3.15;;;;;;;;;;5021662;28;20050;-67
2021/11/27 13:52:11;;;;;;;5.95;3.50;;;;;;;;;;5021578;28;20081;-67
2021/11/27 13:54:38;;;;;;;6.50;3.38;;;;;;;;;;5025850;28;20074;-67
2021/11/27 13:57:05;;;;;;;6.80;2.73;;;;;;;;;;5023103;28;20136;-67
2021/11/27 13:59:33;;;;;;;5.35;3.50;;;;;;;;;;5018730;28;20538;-67
2021/11/27 14:02:00;;;;;;;8.38;3.30;;;;;;;;;;5019099;28;20072;-67
2021/11/27 14:04:27;;;;;;;;;;;;;;;;;;5016472;28;20108;-68
2021/11/27 14:07:04;;;;;;;7.43;3.50;;;;;;;;;;5018079;28;20349;-67
2021/11/27 14:09:43;;;;;;;4.20;2.67;;;;;;;;;;5020020;28;20049;-67
2021/11/27 14:12:29;;;;;;;6.15;3.58;;;;;;;;;;5020173;28;20127;-67
2021/11/27 14:14:57;;;;;;;6.88;3.50;;;;;;;;;;5020019;28;20084;-67
2021/11/27 14:17:24;;;;;;;6.10;3.22;;;;;;;;;;5017621;28;20581;-67
2021/11/27 14:19:50;;;;;;;8.27;3.60;;;;;;;;;;5020841;28;20129;-67
2021/11/27 14:22:17;;;;;;;6.78;3.88;;;;;;;;;;5019229;28;20489;-67
2021/11/27 14:24:44;;;;;;;6.07;3.03;;;;;;;;;;5019437;28;20079;-67
2021/11/27 14:27:11;;;;;;;6.38;3.55;;;;;;;;;;5018485;28;20836;-67
2021/11/27 14:29:38;;;;;;;8.35;3.60;;;;;;;;;;5022441;28;20049;-67
2021/11/27 14:32:25;;;;;;;5.80;3.25;;;;;;;;;;5023060;28;20134;-67
2021/11/27 14:34:53;;;;;;;7.95;3.60;;;;;;;;;;5023977;28;20088;-67
2021/11/27 14:37:19;;;;;;;7.57;3.45;;;;;;;;;;5023864;28;20053;-67
2021/11/27 14:39:54;;;;;;;7.18;3.33;;;;;;;;;;5023826;28;21175;-67
2021/11/27 14:42:25;;;;;;;6.13;3.30;;;;;;;;;;5021687;28;20078;-67
2021/11/27 14:44:54;;;;;;;6.55;3.30;;;;;;;;;;5023105;28;20076;-67
2021/11/27 14:47:20;;;;;;;6.18;3.63;;;;;;;;;;5019184;28;20053;-67
2021/11/27 14:49:54;;;;;;;5.90;3.50;;;;;;;;;;5020592;28;20053;-67
2021/11/27 14:52:25;;;;;;;7.97;3.40;;;;;;;;;;5021776;28;20129;-67
2021/11/27 14:54:56;;;;;;;7.15;3.63;;;;;;;;;;5024666;28;20073;-68
2021/11/27 14:57:26;;;;;;;6.43;3.50;;;;;;;;;;5021543;28;20045;-67